Rock Island, Texas
Current Conditions -  °F | °C
As of 11:55 AM on Friday 24 Oct 2014 (Local Time) from K66R Reporting Station
Clear Clear  
Wind Chill: 75°   Ceiling: Unl
Heat Index: 75°   Visibility: 10mi
Dew Point: 53°   Wind: 3mph
Humidity: 47%   Direction: 340°NNW
Pressure: 30.17"   Gusts: NA
Location:  29.53°N, 96.57°W
Report Text: K66R 241655Z AUTO 34003KT 10SM CLR 24/12 A3017 RMK AO2 T02370117
Loading
Personal Weather Stations






























Interactive Weather Map
Tropical Storm Tracking
New forecast layout! Learn more

10-Day Weather Forecast

Advertisements
Track Severe Weather on mobile